Time;durP1;ratioP1;P1;durP2;ratioP2;P2;SDS_P1;SDS_P2;PMS_P1;PMS_P2;Temp;Humidity;BMP_temperature;BMP_pressure;BME280_temperature;BME280_humidity;BME280_pressure;Samples;Min_cycle;Max_cycle;Signal;HPM_P1;HPM_P2
2021/09/05 00:02:14;;;;;;;;;39.25;32.75;;;;;20.87;76.13;100748.91;4995395;28;46684;-61
2021/09/05 00:04:39;;;;;;;;;30.50;27.75;;;;;20.85;76.08;100748.19;4997219;28;45396;-62
2021/09/05 00:07:05;;;;;;;;;39.00;29.25;;;;;20.86;76.36;100741.03;4997299;28;45349;-61
2021/09/05 00:09:31;;;;;;;;;35.75;33.00;;;;;20.86;76.24;100735.69;4997632;28;45405;-61
2021/09/05 00:11:56;;;;;;;;;31.25;30.25;;;;;20.85;76.30;100733.97;4996157;28;46570;-60
2021/09/05 00:14:21;;;;;;;;;31.00;29.75;;;;;20.87;75.78;100740.88;4997199;28;45487;-63
2021/09/05 00:16:47;;;;;;;;;30.25;28.25;;;;;20.87;76.21;100735.53;4997356;28;45265;-65
2021/09/05 00:19:12;;;;;;;;;36.75;33.50;;;;;20.89;76.50;100729.22;4997486;28;45622;-63
2021/09/05 00:21:38;;;;;;;;;41.75;34.50;;;;;20.86;75.65;100731.16;4997117;28;46390;-61
2021/09/05 00:24:04;;;;;;;;;39.00;31.25;;;;;20.86;76.31;100738.34;4979304;28;45286;-61
2021/09/05 00:26:32;;;;;;;;;36.25;33.00;;;;;20.87;76.40;100727.53;4995548;28;45325;-60
2021/09/05 00:28:57;;;;;;;;;31.75;29.00;;;;;20.91;76.05;100737.97;4997615;28;45254;-61
2021/09/05 00:31:23;;;;;;;;;45.00;36.00;;;;;20.93;75.55;100730.66;4997051;28;46093;-59
2021/09/05 00:33:48;;;;;;;;;40.75;34.50;;;;;20.89;75.46;100726.53;4996833;28;45452;-59
2021/09/05 00:36:13;;;;;;;;;37.50;30.50;;;;;20.93;75.39;100736.00;4997008;28;45444;-60
2021/09/05 00:38:39;;;;;;;;;39.50;34.75;;;;;20.94;75.83;100740.38;4996961;28;45355;-62
2021/09/05 00:41:04;;;;;;;;;36.75;32.00;;;;;20.93;76.23;100741.38;4996896;28;45522;-61
2021/09/05 00:43:30;;;;;;;;;39.25;32.50;;;;;20.94;75.84;100741.25;4996956;28;45732;-61
2021/09/05 00:45:55;;;;;;;;;36.25;32.00;;;;;20.95;75.68;100753.66;4997067;28;45432;-62
2021/09/05 00:48:20;;;;;;;;;35.75;31.25;;;;;20.93;75.60;100744.91;4996729;28;45413;-61
2021/09/05 00:50:46;;;;;;;;;40.75;32.75;;;;;20.96;75.32;100750.00;4996469;28;46149;-63
2021/09/05 00:53:11;;;;;;;;;38.25;32.00;;;;;21.02;75.53;100756.66;4996618;28;45406;-65
2021/09/05 00:55:38;;;;;;;;;36.75;30.75;;;;;21.02;74.97;100752.16;4996669;28;45314;-60
2021/09/05 00:58:08;;;;;;;;;36.50;31.50;;;;;21.03;75.14;100750.31;4996717;28;45653;-61
2021/09/05 01:00:36;;;;;;;;;41.25;33.00;;;;;21.02;75.16;100752.16;4996442;28;45803;-62
2021/09/05 01:03:03;;;;;;;;;38.75;33.75;;;;;21.05;75.22;100748.38;4996563;28;45426;-62
2021/09/05 01:05:30;;;;;;;;;40.00;33.00;;;;;21.04;75.47;100744.00;4996837;28;45339;-60
2021/09/05 01:07:55;;;;;;;;;36.75;33.50;;;;;21.02;75.42;100743.28;4996590;28;45615;-60
2021/09/05 01:10:20;;;;;;;;;34.25;32.00;;;;;21.02;75.04;100744.16;4978118;28;48535;-60
2021/09/05 01:12:46;;;;;;;;;31.75;30.00;;;;;21.02;74.83;100743.28;4996446;28;45479;-62
2021/09/05 01:15:11;;;;;;;;;27.75;27.00;;;;;21.02;74.48;100748.63;4996438;28;45300;-64
2021/09/05 01:17:37;;;;;;;;;33.00;28.25;;;;;21.07;74.49;100749.09;4996443;28;45375;-62
2021/09/05 01:20:08;;;;;;;;;34.00;31.25;;;;;21.10;73.90;100754.19;4996140;28;46316;-63
2021/09/05 01:22:34;;;;;;;;;30.75;27.50;;;;;21.08;73.45;100745.44;4994768;28;45385;-62
2021/09/05 01:25:00;;;;;;;;;32.50;29.25;;;;;21.09;73.94;100746.31;4995229;28;45306;-61
2021/09/05 01:27:25;;;;;;;;;30.50;28.50;;;;;21.07;73.76;100742.91;4994829;28;45647;-61
2021/09/05 01:29:51;;;;;;;;;27.75;25.25;;;;;21.04;73.01;100744.00;4995908;28;45235;-61
2021/09/05 01:32:17;;;;;;;;;30.00;27.25;;;;;20.98;72.83;100740.03;4996009;28;45219;-60
2021/09/05 01:34:42;;;;;;;;;22.25;21.75;;;;;20.96;73.00;100739.31;4994765;28;45301;-62
2021/09/05 01:37:08;;;;;;;;;19.25;19.25;;;;;20.95;72.87;100742.09;4996415;28;45573;-61
2021/09/05 01:39:33;;;;;;;;;25.75;24.25;;;;;20.90;73.37;100731.78;4995906;28;45752;-61
2021/09/05 01:41:59;;;;;;;;;26.75;23.75;;;;;20.89;72.96;100748.81;4996345;28;45396;-61
2021/09/05 01:44:25;;;;;;;;;26.75;25.00;;;;;20.85;72.71;100752.69;4996348;28;45402;-61
2021/09/05 01:46:51;;;;;;;;;23.75;23.00;;;;;20.84;73.06;100761.69;4994701;28;45316;-62
2021/09/05 01:49:17;;;;;;;;;23.75;21.25;;;;;20.82;73.68;100760.97;4995545;28;46608;-61
2021/09/05 01:51:43;;;;;;;;;24.25;21.50;;;;;20.78;73.08;100765.69;4995820;28;45396;-60
2021/09/05 01:54:08;;;;;;;;;27.00;24.75;;;;;20.75;73.22;100767.75;4994432;28;45492;-60
2021/09/05 01:56:35;;;;;;;;;21.75;20.75;;;;;20.76;73.03;100767.63;4996371;28;45388;-62
2021/09/05 01:59:01;;;;;;;;;19.75;17.75;;;;;20.75;73.36;100770.44;4995761;28;46618;-61
2021/09/05 02:01:29;;;;;;;;;25.50;21.25;;;;;20.71;73.38;100762.66;4995534;28;45511;-60
2021/09/05 02:03:55;;;;;;;;;30.75;28.00;;;;;20.73;73.46;100770.53;4978333;28;45340;-60
2021/09/05 02:06:21;;;;;;;;;24.75;23.00;;;;;20.70;73.42;100771.66;4978198;28;45501;-66
2021/09/05 02:08:47;;;;;;;;;25.00;23.75;;;;;20.68;72.88;100764.72;4995280;28;46301;-65
2021/09/05 02:11:13;;;;;;;;;18.25;17.50;;;;;20.67;72.77;100766.50;4995512;28;45346;-65
2021/09/05 02:13:38;;;;;;;;;21.00;20.50;;;;;20.63;72.66;100762.38;4995430;28;45292;-66
2021/09/05 02:16:05;;;;;;;;;18.75;18.00;;;;;20.66;73.20;100761.31;4995769;28;45431;-61
2021/09/05 02:18:30;;;;;;;;;24.00;18.75;;;;;20.47;72.89;100729.84;4995605;28;46213;-60
2021/09/05 02:20:56;;;;;;;;;19.50;15.25;;;;;20.67;72.47;100763.00;4995056;28;45291;-60
2021/09/05 02:23:21;;;;;;;;;21.25;20.50;;;;;20.68;72.61;100757.56;4995221;28;45250;-62
2021/09/05 02:25:47;;;;;;;;;20.50;20.50;;;;;20.68;72.32;100756.69;4994671;28;45349;-60
2021/09/05 02:28:12;;;;;;;;;23.00;20.75;;;;;20.68;71.93;100754.88;4977538;28;46552;-60
2021/09/05 02:30:38;;;;;;;;;23.25;21.00;;;;;20.71;72.65;100753.78;4995217;28;45329;-61
2021/09/05 02:33:04;;;;;;;;;18.25;18.00;;;;;20.68;72.39;100762.91;4995529;28;45534;-62
2021/09/05 02:35:29;;;;;;;;;20.75;18.25;;;;;20.65;72.46;100757.78;4995245;28;45503;-60
2021/09/05 02:37:55;;;;;;;;;18.25;18.25;;;;;20.68;72.15;100759.38;4994924;28;46309;-64
2021/09/05 02:40:21;;;;;;;;;20.25;17.25;;;;;20.70;71.95;100754.75;4994953;28;45401;-60
2021/09/05 02:42:46;;;;;;;;;22.75;19.00;;;;;20.71;72.04;100751.09;4993695;28;45381;-62
2021/09/05 02:45:11;;;;;;;;;19.75;17.00;;;;;20.74;71.76;100758.88;4994978;28;45563;-62
2021/09/05 02:47:37;;;;;;;;;17.50;17.50;;;;;20.74;71.64;100756.19;4994736;28;46591;-64
2021/09/05 02:50:05;;;;;;;;;24.50;19.00;;;;;20.80;71.77;100763.75;4995066;28;45329;-61
2021/09/05 02:52:30;;;;;;;;;19.00;17.00;;;;;20.82;71.14;100764.47;4994806;28;45237;-62
2021/09/05 02:54:56;;;;;;;;;20.25;18.50;;;;;20.85;71.75;100764.22;4995095;28;45608;-64
2021/09/05 02:57:21;;;;;;;;;19.25;18.50;;;;;20.82;72.04;100761.81;4994826;28;46245;-62
2021/09/05 02:59:46;;;;;;;;;18.25;18.25;;;;;20.85;71.68;100764.22;4994752;28;45722;-62
2021/09/05 03:02:12;;;;;;;;;29.25;26.50;;;;;20.91;72.12;100765.56;4994763;28;45434;-60
2021/09/05 03:04:37;;;;;;;;;18.50;18.50;;;;;20.92;71.58;100767.25;4977249;28;45486;-60
2021/09/05 03:07:03;;;;;;;;;21.25;19.00;;;;;20.91;71.48;100772.72;4994591;28;45367;-60
2021/09/05 03:09:28;;;;;;;;;22.50;19.25;;;;;20.90;71.44;100761.19;4993132;28;45837;-62
2021/09/05 03:11:54;;;;;;;;;24.25;20.25;;;;;20.92;71.77;100771.75;4994765;28;45411;-62
2021/09/05 03:14:19;;;;;;;;;21.75;21.75;;;;;20.94;71.65;100767.13;4977317;28;45572;-60
2021/09/05 03:16:44;;;;;;;;;21.25;19.00;;;;;20.92;71.29;100764.59;4994539;28;45453;-61
2021/09/05 03:19:11;;;;;;;;;23.75;18.25;;;;;20.94;71.51;100764.44;4994383;28;45326;-62
2021/09/05 03:21:37;;;;;;;;;19.00;18.25;;;;;20.96;71.37;100763.38;4994680;28;45457;-63
2021/09/05 03:24:03;;;;;;;;;17.50;17.00;;;;;20.93;71.18;100758.28;4993489;28;45703;-62
2021/09/05 03:26:28;;;;;;;;;23.75;21.00;;;;;20.96;70.99;100758.03;4994339;28;45698;-62
2021/09/05 03:28:55;;;;;;;;;20.25;19.25;;;;;21.00;71.51;100761.28;4994242;28;45479;-62
2021/09/05 03:31:20;;;;;;;;;22.00;18.75;;;;;20.99;71.28;100756.91;4994410;28;45325;-60
2021/09/05 03:33:46;;;;;;;;;18.75;18.00;;;;;21.02;71.50;100762.88;4994535;28;45635;-61
2021/09/05 03:36:11;;;;;;;;;20.75;18.50;;;;;21.00;70.79;100753.25;4995475;28;45602;-60
2021/09/05 03:38:37;;;;;;;;;21.25;20.25;;;;;21.02;71.01;100756.66;4997842;28;45254;-60
2021/09/05 03:41:02;;;;;;;;;20.50;20.50;;;;;21.03;70.73;100758.34;4997994;28;45766;-60
2021/09/05 03:43:27;;;;;;;;;19.50;17.00;;;;;21.02;70.70;100746.81;4997811;28;45556;-59
2021/09/05 03:45:53;;;;;;;;;18.75;18.00;;;;;21.02;70.04;100749.50;4997607;28;45776;-61
2021/09/05 03:48:18;;;;;;;;;19.25;19.25;;;;;21.05;70.16;100755.56;4997475;28;45652;-61
2021/09/05 03:50:44;;;;;;;;;19.25;18.25;;;;;21.08;70.06;100755.31;4996235;28;45510;-61
2021/09/05 03:53:09;;;;;;;;;22.50;20.50;;;;;21.08;69.36;100753.47;4997811;28;45479;-61
2021/09/05 03:55:35;;;;;;;;;22.00;20.75;;;;;21.07;69.32;100746.44;4997677;28;46207;-60
2021/09/05 03:58:02;;;;;;;;;21.25;21.25;;;;;21.09;69.43;100757.00;4997386;28;45301;-60
2021/09/05 04:00:28;;;;;;;;;19.75;18.50;;;;;21.08;68.95;100752.63;4997623;28;45352;-60
2021/09/05 04:02:53;;;;;;;;;16.50;15.75;;;;;21.07;69.07;100749.09;4997444;28;45668;-60
2021/09/05 04:05:18;;;;;;;;;23.25;17.50;;;;;21.08;69.31;100758.00;4997366;28;46102;-61
2021/09/05 04:08:00;;;;;;;;;23.00;20.50;;;;;21.06;69.29;100752.75;4997502;28;45255;-65
2021/09/05 04:10:25;;;;;;;;;20.75;20.00;;;;;21.06;69.48;100760.78;4997664;28;45349;-61
2021/09/05 04:12:50;;;;;;;;;19.25;19.00;;;;;21.04;69.29;100765.41;4997719;28;45575;-62
2021/09/05 04:15:16;;;;;;;;;18.50;17.75;;;;;21.04;69.20;100761.88;4997350;28;46582;-62
2021/09/05 04:17:41;;;;;;;;;27.50;21.00;;;;;21.00;69.46;100758.59;4997212;28;45400;-62
2021/09/05 04:20:08;;;;;;;;;23.25;22.25;;;;;20.99;69.45;100760.44;4997629;28;45590;-63
2021/09/05 04:22:34;;;;;;;;;23.50;22.75;;;;;20.96;70.04;100762.50;4997737;28;45555;-62
2021/09/05 04:24:59;;;;;;;;;21.75;20.00;;;;;20.95;69.72;100777.72;4997152;28;45638;-65
2021/09/05 04:27:25;;;;;;;;;26.75;21.25;;;;;20.92;70.09;100761.06;4997194;28;45266;-61
2021/09/05 04:29:50;;;;;;;;;23.50;22.50;;;;;20.91;70.42;100772.72;4997495;28;45437;-61
2021/09/05 04:32:17;;;;;;;;;25.00;23.50;;;;;20.87;70.20;100767.63;4997594;28;45495;-61
2021/09/05 04:34:43;;;;;;;;;31.00;26.25;;;;;20.82;70.53;100771.66;4996869;28;46165;-60
2021/09/05 04:37:08;;;;;;;;;23.50;22.75;;;;;20.75;70.56;100773.94;4997143;28;45511;-61
2021/09/05 04:39:34;;;;;;;;;24.25;22.50;;;;;20.69;70.53;100772.63;4979466;28;45517;-59
2021/09/05 04:41:59;;;;;;;;;27.75;26.50;;;;;20.63;70.69;100778.44;4997362;28;45429;-63
2021/09/05 04:44:25;;;;;;;;;27.75;24.00;;;;;20.49;71.12;100763.50;4995404;28;45716;-59
2021/09/05 04:46:50;;;;;;;;;28.50;23.75;;;;;20.53;71.19;100781.00;4995071;28;45376;-59
2021/09/05 04:49:16;;;;;;;;;35.00;32.00;;;;;20.40;71.13;100772.25;4996250;28;45345;-60
2021/09/05 04:51:41;;;;;;;;;28.75;25.00;;;;;20.46;71.21;100787.81;4997415;28;45883;-61
2021/09/05 04:54:06;;;;;;;;;35.00;27.25;;;;;20.46;71.20;100787.81;4996708;28;46177;-60
2021/09/05 04:56:32;;;;;;;;;25.00;24.00;;;;;20.47;71.11;100788.63;4996540;28;45351;-59
2021/09/05 04:58:57;;;;;;;;;26.00;23.75;;;;;20.46;71.14;100792.28;4996629;28;45312;-60
2021/09/05 05:01:23;;;;;;;;;30.00;25.25;;;;;20.44;71.36;100801.28;4995525;28;45575;-61
2021/09/05 05:03:48;;;;;;;;;27.50;24.50;;;;;20.43;71.49;100793.38;4996547;28;46481;-59
2021/09/05 05:06:13;;;;;;;;;29.50;26.25;;;;;20.44;71.25;100800.44;4996489;28;45329;-60
2021/09/05 05:08:39;;;;;;;;;30.75;26.25;;;;;20.43;71.66;100804.91;4996647;28;45493;-59
2021/09/05 05:11:04;;;;;;;;;25.00;24.25;;;;;20.43;71.41;100804.06;4996820;28;45294;-64
2021/09/05 05:13:30;;;;;;;;;26.50;25.00;;;;;20.45;71.63;100804.81;4994851;28;48303;-62
2021/09/05 05:15:55;;;;;;;;;22.75;20.25;;;;;20.43;71.80;100812.91;4978689;28;45389;-60
2021/09/05 05:18:24;;;;;;;;;26.00;23.75;;;;;20.43;71.34;100807.59;4996302;28;45395;-62
2021/09/05 05:20:51;;;;;;;;;24.00;21.75;;;;;20.43;71.63;100810.25;4996256;28;45237;-61
2021/09/05 05:23:17;;;;;;;;;30.25;23.50;;;;;20.43;71.02;100820.09;4995866;28;45410;-61
2021/09/05 05:25:43;;;;;;;;;23.25;21.00;;;;;20.42;70.89;100823.75;4996349;28;45290;-63
2021/09/05 05:28:09;;;;;;;;;23.75;23.75;;;;;20.37;71.44;100821.41;4994762;28;45344;-60
2021/09/05 05:30:34;;;;;;;;;7.50;6.00;;;;;20.41;71.38;100830.06;4978283;28;45368;-62
2021/09/05 05:33:00;;;;;;;;;23.50;21.00;;;;;20.40;71.40;100823.03;4995922;28;45425;-60
2021/09/05 05:35:25;;;;;;;;;27.00;22.50;;;;;20.41;71.49;100835.41;4996081;28;45393;-60
2021/09/05 05:37:51;;;;;;;;;24.50;23.00;;;;;20.38;71.88;100823.13;4996185;28;45151;-60
2021/09/05 05:40:22;;;;;;;;;23.50;22.00;;;;;20.41;71.87;100836.25;4996183;28;45657;-62
2021/09/05 05:42:48;;;;;;;;;22.75;21.25;;;;;20.37;71.61;100831.28;4995897;28;47097;-61
2021/09/05 05:45:16;;;;;;;;;24.25;23.25;;;;;20.37;71.31;100833.94;4996092;28;45676;-62
2021/09/05 05:47:42;;;;;;;;;27.75;25.25;;;;;20.39;71.32;100834.66;4996283;28;45334;-60
2021/09/05 05:50:08;;;;;;;;;31.75;28.75;;;;;20.42;71.73;100829.94;4978151;28;45351;-61
2021/09/05 05:52:33;;;;;;;;;26.50;24.25;;;;;20.44;71.76;100836.00;4995871;28;45395;-63
2021/09/05 05:54:58;;;;;;;;;25.75;22.75;;;;;20.52;71.18;100838.09;4995922;28;45321;-62
2021/09/05 05:57:24;;;;;;;;;23.50;22.50;;;;;20.57;71.12;100835.03;4995654;28;45392;-64
2021/09/05 05:59:50;;;;;;;;;25.25;23.75;;;;;20.64;71.20;100838.91;4977046;28;45572;-66
2021/09/05 06:02:15;;;;;;;;;26.75;25.25;;;;;20.72;71.43;100839.19;4995222;28;45262;-62
2021/09/05 06:04:40;;;;;;;;;23.50;21.50;;;;;20.80;70.83;100840.44;4995856;28;45441;-63
2021/09/05 06:07:06;;;;;;;;;24.25;22.25;;;;;20.87;70.29;100845.16;4995682;28;45501;-64
2021/09/05 06:09:31;;;;;;;;;21.00;20.00;;;;;20.94;69.83;100847.34;4996420;28;45390;-66
2021/09/05 06:11:56;;;;;;;;;21.75;20.50;;;;;21.00;69.40;100849.53;4995546;28;46044;-64
2021/09/05 06:14:22;;;;;;;;;24.00;21.50;;;;;21.01;69.25;100851.22;4995632;28;45412;-63
2021/09/05 06:16:47;;;;;;;;;20.50;19.25;;;;;21.09;69.00;100850.63;4995659;28;45315;-63
2021/09/05 06:19:12;;;;;;;;;20.50;20.50;;;;;21.16;69.31;100855.31;4996334;28;45455;-62
2021/09/05 06:21:38;;;;;;;;;21.00;20.50;;;;;21.22;68.66;100862.03;4995575;28;45557;-61
2021/09/05 06:24:03;;;;;;;;;21.50;21.50;;;;;21.27;68.44;100857.16;4995122;28;45328;-62
2021/09/05 06:26:29;;;;;;;;;25.00;20.00;;;;;21.35;68.43;100858.34;4995127;28;45386;-62
2021/09/05 06:28:56;;;;;;;;;22.00;19.25;;;;;21.40;68.09;100862.34;4995457;28;45597;-64
2021/09/05 06:31:21;;;;;;;;;22.25;20.75;;;;;21.45;67.79;100862.81;4995105;28;46620;-62
2021/09/05 06:33:46;;;;;;;;;21.25;20.00;;;;;21.53;67.89;100877.41;4994997;28;45362;-63
2021/09/05 06:36:12;;;;;;;;;20.75;19.50;;;;;21.57;67.63;100885.03;4995650;28;45399;-68
2021/09/05 06:38:37;;;;;;;;;18.00;16.50;;;;;21.58;66.89;100872.53;4995289;28;45332;-61
2021/09/05 06:41:03;;;;;;;;;22.75;20.50;;;;;21.64;67.07;100879.22;4995125;28;46535;-61
2021/09/05 06:43:28;;;;;;;;;21.00;18.00;;;;;21.69;66.42;100883.22;4994829;28;45337;-62
2021/09/05 06:45:53;;;;;;;;;21.25;19.00;;;;;21.70;66.29;100887.59;4994960;28;45410;-61
2021/09/05 06:48:19;;;;;;;;;19.75;19.00;;;;;21.68;66.22;100891.38;4994952;28;45441;-63
2021/09/05 06:50:46;;;;;;;;;21.25;18.75;;;;;21.68;66.37;100896.72;4995233;28;46261;-64
2021/09/05 06:53:12;;;;;;;;;18.50;17.75;;;;;21.72;66.46;100904.38;4994875;28;45451;-61
2021/09/05 06:55:37;;;;;;;;;20.00;19.25;;;;;21.73;65.94;100898.06;4994583;28;45666;-63
2021/09/05 06:58:02;;;;;;;;;20.00;16.00;;;;;21.77;66.29;100904.03;4994963;28;45524;-68
2021/09/05 07:00:28;;;;;;;;;20.00;20.00;;;;;21.83;65.78;100905.31;4994391;28;45411;-66
2021/09/05 07:02:53;;;;;;;;;21.75;18.50;;;;;21.89;65.48;100908.34;4994394;28;45318;-69
2021/09/05 07:05:18;;;;;;;;;20.00;18.25;;;;;22.00;65.21;100912.78;4994581;28;45510;-64
2021/09/05 07:07:44;;;;;;;;;19.75;17.25;;;;;22.12;65.08;100920.78;4994847;28;45556;-65
2021/09/05 07:10:10;;;;;;;;;19.75;19.25;;;;;22.16;64.51;100920.41;4994287;28;45537;-65
2021/09/05 07:12:35;;;;;;;;;21.50;19.75;;;;;22.25;64.52;100921.44;4994609;28;45288;-62
2021/09/05 07:15:00;;;;;;;;;20.75;17.25;;;;;22.35;64.27;100916.16;4993151;28;45536;-63
2021/09/05 07:17:26;;;;;;;;;26.00;23.50;;;;;22.46;64.54;100928.69;4994855;28;45571;-62
2021/09/05 07:19:52;;;;;;;;;20.25;18.00;;;;;22.55;64.13;100933.25;4994418;28;45361;-62
2021/09/05 07:22:18;;;;;;;;;23.25;18.00;;;;;22.58;64.29;100924.97;4994701;28;45318;-62
2021/09/05 07:24:43;;;;;;;;;25.50;24.25;;;;;22.66;63.99;100918.09;4994250;28;45475;-63
2021/09/05 07:27:08;;;;;;;;;24.25;22.25;;;;;22.69;63.84;100918.66;4994598;28;45654;-63
2021/09/05 07:29:34;;;;;;;;;25.25;23.25;;;;;22.73;64.16;100927.28;4994328;28;45535;-64
2021/09/05 07:31:59;;;;;;;;;27.00;23.50;;;;;22.72;64.34;100920.22;4989242;28;45565;-64
2021/09/05 07:34:24;;;;;;;;;26.25;23.25;;;;;22.81;64.06;100929.31;4995251;28;45559;-66
2021/09/05 07:36:50;;;;;;;;;22.50;21.00;;;;;22.84;63.62;100931.75;5014521;28;45600;-62
2021/09/05 07:39:15;;;;;;;;;15.00;14.75;;;;;22.87;63.86;100931.47;4996427;28;47522;-63
2021/09/05 07:41:40;;;;;;;;;24.00;24.00;;;;;22.93;63.32;100930.06;5014399;28;45381;-64
2021/09/05 07:44:06;;;;;;;;;29.75;23.50;;;;;22.97;63.11;100934.19;5014178;28;45352;-66
2021/09/05 07:46:31;;;;;;;;;32.00;22.25;;;;;23.01;63.24;100932.94;5014633;28;45606;-63
2021/09/05 07:48:57;;;;;;;;;21.50;19.00;;;;;23.04;61.97;100929.97;5014081;28;45419;-62
2021/09/05 07:51:24;;;;;;;;;24.00;23.25;;;;;23.03;62.19;100936.31;5014104;28;45458;-64
2021/09/05 07:53:51;;;;;;;;;26.50;21.25;;;;;22.97;62.60;100924.31;5014627;28;45249;-64
2021/09/05 07:56:16;;;;;;;;;20.75;20.75;;;;;23.11;61.90;100949.06;5014429;28;45258;-62
2021/09/05 07:58:41;;;;;;;;;21.75;20.50;;;;;23.13;61.64;100950.63;4994509;28;47088;-65
2021/09/05 08:01:07;;;;;;;;;19.50;18.50;;;;;23.16;61.77;100946.84;5012234;28;45242;-66
2021/09/05 08:03:37;;;;;;;;;26.50;20.00;;;;;23.17;61.52;100951.22;5013977;28;45810;-63
2021/09/05 08:06:03;;;;;;;;;19.50;18.00;;;;;23.15;61.02;100962.06;5014263;28;45455;-64
2021/09/05 08:08:28;;;;;;;;;18.50;17.50;;;;;23.17;61.23;100959.28;5013407;28;45423;-64
2021/09/05 08:10:53;;;;;;;;;26.25;21.00;;;;;23.24;61.30;100970.31;5013855;28;45367;-64
2021/09/05 08:13:19;;;;;;;;;23.00;20.75;;;;;23.29;60.57;100963.59;5014078;28;45396;-66
2021/09/05 08:15:44;;;;;;;;;23.50;21.75;;;;;23.39;60.50;100965.44;5014123;28;45587;-61
2021/09/05 08:18:10;;;;;;;;;20.25;18.50;;;;;23.55;60.65;100973.81;5012004;28;48347;-62
2021/09/05 08:20:35;;;;;;;;;18.25;17.25;;;;;23.72;60.00;100968.78;4995507;28;45351;-63
2021/09/05 08:23:01;;;;;;;;;25.50;18.75;;;;;23.86;59.77;100971.09;5014612;28;45385;-63
2021/09/05 08:25:27;;;;;;;;;19.75;19.25;;;;;24.00;59.27;100972.53;5017610;28;45210;-64
2021/09/05 08:27:52;;;;;;;;;25.25;21.00;;;;;24.10;59.21;100974.38;5015725;28;47358;-63
2021/09/05 08:30:18;;;;;;;;;23.50;21.00;;;;;24.25;58.71;100975.66;5017144;28;45440;-62
2021/09/05 08:32:43;;;;;;;;;25.25;23.00;;;;;24.44;57.92;100982.03;5017145;28;45298;-63
2021/09/05 08:35:09;;;;;;;;;22.75;20.25;;;;;24.59;57.58;100975.22;5016985;28;45596;-65
2021/09/05 08:37:34;;;;;;;;;20.75;19.50;;;;;24.81;57.44;100975.91;5016624;28;45425;-62
2021/09/05 08:40:00;;;;;;;;;18.00;16.25;;;;;24.99;56.92;100980.53;4998919;28;45350;-62
2021/09/05 08:42:27;;;;;;;;;18.50;18.25;;;;;25.09;55.98;100976.81;5016783;28;45335;-62
2021/09/05 08:44:53;;;;;;;;;20.00;19.25;;;;;25.18;56.37;100993.91;5017536;28;45795;-64
2021/09/05 08:47:19;;;;;;;;;18.50;15.50;;;;;25.31;56.06;100988.19;4998869;28;48136;-63
2021/09/05 08:49:46;;;;;;;;;17.50;17.25;;;;;25.38;55.66;100977.66;5016539;28;45457;-63
2021/09/05 08:52:12;;;;;;;;;18.50;18.25;;;;;25.54;55.25;100984.28;5016151;28;45461;-62
2021/09/05 08:54:38;;;;;;;;;16.50;16.50;;;;;25.66;54.97;100985.78;5017036;28;45397;-62
2021/09/05 08:57:03;;;;;;;;;17.00;16.50;;;;;25.75;54.54;100979.47;4998513;28;47122;-66
2021/09/05 08:59:29;;;;;;;;;14.00;14.00;;;;;25.83;54.54;100984.09;5016412;28;45365;-63
2021/09/05 09:02:00;;;;;;;;;24.00;20.25;;;;;25.88;53.96;100989.88;4998332;28;45398;-66
2021/09/05 09:04:26;;;;;;;;;19.75;18.00;;;;;25.93;53.94;100976.78;4998310;28;45517;-62
2021/09/05 09:06:52;;;;;;;;;21.00;19.50;;;;;25.97;53.82;100988.13;5016248;28;45967;-68
2021/09/05 09:09:18;;;;;;;;;16.00;16.00;;;;;25.98;53.28;100987.13;5016386;28;45238;-66
2021/09/05 09:11:54;;;;;;;;;17.75;16.25;;;;;25.95;53.53;100990.97;4998591;28;45478;-62
2021/09/05 09:14:39;;;;;;;;;22.50;21.50;;;;;25.89;53.83;100990.72;5016777;28;45443;-63
2021/09/05 09:17:04;;;;;;;;;22.75;22.75;;;;;25.83;53.98;100991.34;5014866;28;45590;-64
2021/09/05 09:19:30;;;;;;;;;20.25;17.75;;;;;25.86;54.41;100985.66;5016040;28;45333;-63
2021/09/05 09:21:56;;;;;;;;;14.25;13.00;;;;;25.92;53.67;100996.66;5016445;28;45334;-62
2021/09/05 09:24:23;;;;;;;;;24.75;21.75;;;;;25.89;53.53;100990.72;5016642;28;45483;-64
2021/09/05 09:27:08;;;;;;;;;24.75;24.25;;;;;25.95;53.99;100996.34;5015895;28;46340;-62
2021/09/05 09:29:35;;;;;;;;;19.25;18.50;;;;;26.04;53.81;100994.59;5016113;28;45449;-64
2021/09/05 09:32:05;;;;;;;;;21.75;21.50;;;;;26.07;53.76;100988.88;5015948;28;45456;-67
2021/09/05 09:34:46;;;;;;;;;21.75;18.75;;;;;26.12;53.57;100996.53;4998186;28;45427;-62
2021/09/05 09:37:14;;;;;;;;;22.75;20.50;;;;;26.25;53.49;100997.03;4997994;28;46776;-64
2021/09/05 09:39:47;;;;;;;;;23.75;20.25;;;;;26.33;53.33;100993.53;5016169;28;45423;-65
2021/09/05 09:42:35;;;;;;;;;24.50;23.25;;;;;26.36;52.71;100998.63;5016454;28;45359;-62
2021/09/05 09:45:03;;;;;;;;;21.25;20.00;;;;;26.30;52.73;100999.22;5016347;28;45273;-67
2021/09/05 09:47:46;;;;;;;;;20.50;20.50;;;;;26.33;52.73;100993.53;5015700;28;47591;-63
2021/09/05 09:50:14;;;;;;;;;23.25;20.75;;;;;26.42;52.54;100986.38;5015856;28;45422;-62
2021/09/05 09:52:40;;;;;;;;;25.75;22.00;;;;;26.49;52.54;100987.44;5015735;28;45361;-62
2021/09/05 09:55:06;;;;;;;;;23.00;21.50;;;;;26.54;52.11;100997.78;5014481;28;45515;-63
2021/09/05 09:57:40;;;;;;;;;23.00;20.75;;;;;26.58;52.25;100996.44;5015568;28;45511;-63
2021/09/05 10:00:06;;;;;;;;;18.75;18.00;;;;;26.54;51.95;100989.69;5015539;28;45202;-65
2021/09/05 10:02:43;;;;;;;;;24.25;22.25;;;;;26.61;52.20;100992.56;5015671;28;45305;-63
2021/09/05 10:05:12;;;;;;;;;19.75;18.50;;;;;26.76;51.65;100996.38;5015984;28;45337;-65
2021/09/05 10:07:38;;;;;;;;;18.25;16.50;;;;;26.89;51.49;100998.72;5015438;28;46239;-66
2021/09/05 10:10:06;;;;;;;;;13.25;12.75;;;;;27.00;50.81;100989.47;4997566;28;45427;-63
2021/09/05 10:12:33;;;;;;;;;19.25;17.00;;;;;27.08;50.09;100991.38;5015067;28;45275;-63
2021/09/05 10:14:59;;;;;;;;;22.00;22.00;;;;;27.10;50.77;100995.63;5015475;28;45499;-63
2021/09/05 10:17:25;;;;;;;;;18.50;18.00;;;;;27.06;50.51;100985.31;5015429;28;45419;-64
2021/09/05 10:19:52;;;;;;;;;21.75;21.25;;;;;27.16;51.48;100986.03;4997473;28;45359;-64
2021/09/05 10:22:23;;;;;;;;;20.25;18.75;;;;;27.30;50.77;100989.13;5014974;28;45418;-63
2021/09/05 10:24:50;;;;;;;;;18.75;18.75;;;;;27.41;49.86;100986.13;5014824;28;45847;-64
2021/09/05 10:27:16;;;;;;;;;19.50;18.00;;;;;27.44;49.88;100988.50;4996676;28;48174;-63
2021/09/05 10:30:06;;;;;;;;;18.50;16.75;;;;;27.55;50.31;100990.13;5015002;28;45545;-65
2021/09/05 10:32:57;;;;;;;;;20.75;20.25;;;;;27.68;49.43;100984.25;5015149;28;45377;-63
2021/09/05 10:35:26;;;;;;;;;24.00;21.75;;;;;27.80;49.09;100991.03;5015372;28;45474;-66
2021/09/05 10:38:10;;;;;;;;;21.50;20.00;;;;;27.86;48.60;100989.50;5014822;28;46357;-64
2021/09/05 10:40:46;;;;;;;;;22.25;19.75;;;;;27.86;48.62;100978.69;5013505;28;45287;-63
2021/09/05 10:43:12;;;;;;;;;23.75;21.50;;;;;27.97;49.23;100982.94;5013331;28;45336;-64
2021/09/05 10:45:44;;;;;;;;;15.25;15.25;;;;;28.06;48.60;100981.94;5014718;28;45497;-64
2021/09/05 10:48:44;;;;;;;;;19.75;19.25;;;;;28.16;48.45;100984.53;5015054;28;45437;-64
2021/09/05 10:51:34;;;;;;;;;23.00;20.50;;;;;28.21;47.71;100981.31;4999561;28;45456;-63
2021/09/05 10:54:01;;;;;;;;;20.50;16.50;;;;;28.06;47.95;100965.72;5015034;28;45293;-64
2021/09/05 10:56:27;;;;;;;;;21.00;20.75;;;;;28.16;48.50;100968.31;5015323;28;45828;-64
2021/09/05 10:58:57;;;;;;;;;25.75;21.75;;;;;28.27;47.42;100970.69;5013324;28;46156;-65
2021/09/05 11:01:41;;;;;;;;;23.50;21.75;;;;;28.33;47.85;100971.84;5014859;28;45557;-65
2021/09/05 11:04:16;;;;;;;;;19.50;19.50;;;;;28.49;46.50;100973.72;5014389;28;45458;-65
2021/09/05 11:06:55;;;;;;;;;17.50;17.50;;;;;28.52;47.43;100972.50;5014576;28;45657;-64
2021/09/05 11:09:21;;;;;;;;;20.25;19.25;;;;;28.60;46.87;100972.50;5013121;28;47247;-66